Time;durP1;ratioP1;P1;durP2;ratioP2;P2;SDS_P1;SDS_P2;PMS_P1;PMS_P2;Temp;Humidity;BMP_temperature;BMP_pressure;BME280_temperature;BME280_humidity;BME280_pressure;Samples;Min_cycle;Max_cycle;Signal;HPM_P1;HPM_P2
2023/01/22 00:02:26;;;;;;;;;;;;;;;;;;10291914;28;20023;-67
2023/01/22 00:07:24;;;;;;;;;;;;;;;;;;10296118;28;19976;-67
2023/01/22 00:12:22;;;;;;;;;;;;;;;;;;10293749;28;19969;-67
2023/01/22 00:17:20;;;;;;;;;;;;;;;;;;10294228;28;19963;-67
2023/01/22 00:22:18;;;;;;;;;;;;;;;;;;10294864;28;19986;-67
2023/01/22 00:27:16;;;;;;;;;;;;;;;;;;10293519;28;19963;-67
2023/01/22 00:32:14;;;;;;;;;;;;;;;;;;10294081;28;19972;-66
2023/01/22 00:37:12;;;;;;;;;;;;;;;;;;10289556;28;20377;-67
2023/01/22 00:42:10;;;;;;;;;;;;;;;;;;10293936;28;19967;-67
2023/01/22 00:47:07;;;;;;;;;;;;;;;;;;10293661;28;20031;-67
2023/01/22 00:52:06;;;;;;;;;;;;;;;;;;10293046;28;19952;-66
2023/01/22 00:57:04;;;;;;;;;;;;;;;;;;10288969;28;19978;-66
2023/01/22 01:02:02;;;;;;;;;;;;;;;;;;10293235;28;20515;-67
2023/01/22 01:07:00;;;;;;;;;;;;;;;;;;10293858;28;19968;-68
2023/01/22 01:11:58;;;;;;;;;;;;;;;;;;10298544;28;19960;-66
2023/01/22 01:16:55;;;;;;;;;;;;;;;;;;10290984;28;19960;-67
2023/01/22 01:21:55;;;;;;;;;;;;;;;;;;10291718;28;20337;-67
2023/01/22 01:26:53;;;;;;;;;;;;;;;;;;10290402;28;19974;-67
2023/01/22 01:31:53;;;;;;;;;;;;;;;;;;10288458;28;19983;-68
2023/01/22 01:36:51;;;;;;;;;;;;;;;;;;10283364;28;19994;-67
2023/01/22 01:41:49;;;;;;;;;;;;;;;;;;10281424;28;19964;-68
2023/01/22 01:46:47;;;;;;;;;;;;;;;;;;10285457;28;20353;-69
2023/01/22 01:51:45;;;;;;;;;;;;;;;;;;10289666;28;20393;-68
2023/01/22 01:56:43;;;;;;;;;;;;;;;;;;10289349;28;19971;-68
2023/01/22 02:01:41;;;;;;;;;;;;;;;;;;10294940;28;19968;-69
2023/01/22 02:06:40;;;;;;;;;;;;;;;;;;10284357;28;19956;-69
2023/01/22 02:11:37;;;;;;;;;;;;;;;;;;10294208;28;19967;-69
2023/01/22 02:16:35;;;;;;;;;;;;;;;;;;10290929;28;19963;-69
2023/01/22 02:21:34;;;;;;;;;;;;;;;;;;10298648;28;19931;-69
2023/01/22 02:26:32;;;;;;;;;;;;;;;;;;10291978;28;19960;-69
2023/01/22 02:31:30;;;;;;;;;;;;;;;;;;10279304;28;20413;-69
2023/01/22 02:36:28;;;;;;;;;;;;;;;;;;10295370;28;19958;-69
2023/01/22 02:41:26;;;;;;;;;;;;;;;;;;10292887;28;20352;-68
2023/01/22 02:46:24;;;;;;;;;;;;;;;;;;10289309;28;19957;-69
2023/01/22 02:51:22;;;;;;;;;;;;;;;;;;10295583;28;20347;-68
2023/01/22 02:56:20;;;;;;;;;;;;;;;;;;10297054;28;19968;-69
2023/01/22 03:01:21;;;;;;;;;;;;;;;;;;10291109;28;19971;-69
2023/01/22 03:06:21;;;;;;;;;;;;;;;;;;10300578;28;19928;-69
2023/01/22 03:11:19;;;;;;;;;;;;;;;;;;10288678;28;20424;-69
2023/01/22 03:21:34;;;;;;;;;;;;;;;;;;10295686;28;19964;-68
2023/01/22 03:26:32;;;;;;;;;;;;;;;;;;10299514;28;19924;-68
2023/01/22 03:31:30;;;;;;;;;;;;;;;;;;10291453;28;19960;-69
2023/01/22 03:36:28;;;;;;;;;;;;;;;;;;10284367;28;19953;-69
2023/01/22 03:41:29;;;;;;;;;;;;;;;;;;10286655;28;19921;-69
2023/01/22 03:46:27;;;;;;;;;;;;;;;;;;10304307;28;19921;-68
2023/01/22 03:51:26;;;;;;;;;;;;;;;;;;10289972;28;19967;-69
2023/01/22 03:56:24;;;;;;;;;;;;;;;;;;10293680;28;19982;-69
2023/01/22 04:01:25;;;;;;;;;;;;;;;;;;10298101;28;20602;-69
2023/01/22 04:06:25;;;;;;;;;;;;;;;;;;10296979;28;19998;-71
2023/01/22 04:11:22;;;;;;;;;;;;;;;;;;10287616;28;20420;-68
2023/01/22 04:16:20;;;;;;;;;;;;;;;;;;10303865;28;20425;-68
2023/01/22 04:21:37;;;;;;;;;;;;;;;;;;10286767;28;19955;-68
2023/01/22 04:26:37;;;;;;;;;;;;;;;;;;10295371;28;19963;-68
2023/01/22 04:31:36;;;;;;;;;;;;;;;;;;10284803;28;19960;-69
2023/01/22 04:36:49;;;;;;;;;;;;;;;;;;10288195;28;19960;-69
2023/01/22 04:41:47;;;;;;;;;;;;;;;;;;10288443;28;20305;-68
2023/01/22 04:46:45;;;;;;;;;;;;;;;;;;10299813;28;19963;-69
2023/01/22 04:51:43;;;;;;;;;;;;;;;;;;10294989;28;19978;-68
2023/01/22 04:56:41;;;;;;;;;;;;;;;;;;10285704;28;19963;-69
2023/01/22 05:01:41;;;;;;;;;;;;;;;;;;10298258;28;19956;-68
2023/01/22 05:06:38;;;;;;;;;;;;;;;;;;10282532;28;19970;-68
2023/01/22 05:11:37;;;;;;;;;;;;;;;;;;10296006;28;19952;-68
2023/01/22 05:16:36;;;;;;;;;;;;;;;;;;10294902;28;19959;-69
2023/01/22 05:21:34;;;;;;;;;;;;;;;;;;10291388;28;20423;-69
2023/01/22 05:26:32;;;;;;;;;;;;;;;;;;10290916;28;19971;-69
2023/01/22 05:31:55;;;;;;;;;;;;;;;;;;10285581;28;19964;-68
2023/01/22 05:37:10;;;;;;;;;;;;;;;;;;10282708;28;20397;-69
2023/01/22 05:42:09;;;;;;;;;;;;;;;;;;10283605;28;19985;-69
2023/01/22 05:47:08;;;;;;;;;;;;;;;;;;10291888;28;20553;-69
2023/01/22 05:52:16;;;;;;;;;;;;;;;;;;10277969;28;20408;-68
2023/01/22 05:57:16;;;;;;;;;;;;;;;;;;10290973;28;19963;-68
2023/01/22 06:02:14;;;;;;;;;;;;;;;;;;10290889;28;19963;-69
2023/01/22 06:07:13;;;;;;;;;;;;;;;;;;10283964;28;20338;-69
2023/01/22 06:12:14;;;;;;;;;;;;;;;;;;10286861;28;19999;-68
2023/01/22 06:17:12;;;;;;;;;;;;;;;;;;10293938;28;20389;-69
2023/01/22 06:22:19;;;;;;;;;;;;;;;;;;10283410;28;19952;-68
2023/01/22 06:27:21;;;;;;;;;;;;;;;;;;10280753;28;19960;-69
2023/01/22 06:32:25;;;;;;;;;;;;;;;;;;10294337;28;19978;-69
2023/01/22 06:37:23;;;;;;;;;;;;;;;;;;10279671;28;19960;-67
2023/01/22 06:42:22;;;;;;;;;;;;;;;;;;10264182;28;19971;-68
2023/01/22 06:47:20;;;;;;;;;;;;;;;;;;10274287;28;19952;-69
2023/01/22 06:52:18;;;;;;;;;;;;;;;;;;10280639;28;19955;-68
2023/01/22 06:57:16;;;;;;;;;;;;;;;;;;10266339;28;20003;-68
2023/01/22 07:02:14;;;;;;;;;;;;;;;;;;10284161;28;19959;-68
2023/01/22 07:07:12;;;;;;;;;;;;;;;;;;10276873;28;19948;-68
2023/01/22 07:12:10;;;;;;;;;;;;;;;;;;10266586;28;19971;-68
2023/01/22 07:17:08;;;;;;;;;;;;;;;;;;10283367;28;19970;-68
2023/01/22 07:22:06;;;;;;;;;;;;;;;;;;10283061;28;20341;-68
2023/01/22 07:27:04;;;;;;;;;;;;;;;;;;10277435;28;20406;-69
2023/01/22 07:32:01;;;;;;;;;;;;;;;;;;10285512;28;19971;-70
2023/01/22 07:37:00;;;;;;;;;;;;;;;;;;10287481;28;19962;-69
2023/01/22 07:42:00;;;;;;;;;;;;;;;;;;10289172;28;20365;-69
2023/01/22 07:47:00;;;;;;;;;;;;;;;;;;10292148;28;19956;-69
2023/01/22 07:51:58;;;;;;;;;;;;;;;;;;10290743;28;20342;-68
2023/01/22 07:56:56;;;;;;;;;;;;;;;;;;10294270;28;19964;-68
2023/01/22 08:01:53;;;;;;;;;;;;;;;;;;10293975;28;19979;-68
2023/01/22 08:06:51;;;;;;;;;;;;;;;;;;10292335;28;19964;-69
2023/01/22 08:11:49;;;;;;;;;;;;;;;;;;10288090;28;20541;-68
2023/01/22 08:16:47;;;;;;;;;;;;;;;;;;10295286;28;19960;-68
2023/01/22 08:21:45;;;;;;;;;;;;;;;;;;10291985;28;19951;-69
2023/01/22 08:26:44;;;;;;;;;;;;;;;;;;10293854;28;20383;-69
2023/01/22 08:31:42;;;;;;;;;;;;;;;;;;10291273;28;20093;-67
2023/01/22 08:36:40;;;;;;;;;;;;;;;;;;10292495;28;20361;-68
2023/01/22 08:41:37;;;;;;;;;;;;;;;;;;10292481;28;19960;-69
2023/01/22 08:46:39;;;;;;;;;;;;;;;;;;10293266;28;19968;-69
2023/01/22 08:51:37;;;;;;;;;;;;;;;;;;10275028;28;19960;-68
2023/01/22 08:56:34;;;;;;;;;;;;;;;;;;10294701;28;19921;-69
2023/01/22 09:01:32;;;;;;;;;;;;;;;;;;10293402;28;19966;-68
2023/01/22 09:06:30;;;;;;;;;;;;;;;;;;10289524;28;20405;-69
2023/01/22 09:11:29;;;;;;;;;;;;;;;;;;10292906;28;19963;-69
2023/01/22 09:16:27;;;;;;;;;;;;;;;;;;10291944;28;19948;-69
2023/01/22 09:21:25;;;;;;;;;;;;;;;;;;10293663;28;20004;-69
2023/01/22 09:26:23;;;;;;;;;;;;;;;;;;10288411;28;19971;-69
2023/01/22 09:31:20;;;;;;;;;;;;;;;;;;10293282;28;19970;-69
2023/01/22 09:36:18;;;;;;;;;;;;;;;;;;10292838;28;20393;-69
2023/01/22 09:41:16;;;;;;;;;;;;;;;;;;10291780;28;19955;-68
2023/01/22 09:46:14;;;;;;;;;;;;;;;;;;10290021;28;19959;-67
2023/01/22 09:51:12;;;;;;;;;;;;;;;;;;10292373;28;20444;-68
2023/01/22 09:56:10;;;;;;;;;;;;;;;;;;10289795;28;19971;-69
2023/01/22 10:01:08;;;;;;;;;;;;;;;;;;10284049;28;19947;-70
2023/01/22 10:06:06;;;;;;;;;;;;;;;;;;10287593;28;19921;-68
2023/01/22 10:11:04;;;;;;;;;;;;;;;;;;10293328;28;19956;-69
2023/01/22 10:16:01;;;;;;;;;;;;;;;;;;10282533;28;20491;-70
2023/01/22 10:20:59;;;;;;;;;;;;;;;;;;10285083;28;19944;-70
2023/01/22 10:25:57;;;;;;;;;;;;;;;;;;10280047;28;19947;-72
2023/01/22 10:30:57;;;;;;;;;;;;;;;;;;10283837;28;20376;-71
2023/01/22 10:35:56;;;;;;;;;;;;;;;;;;10286261;28;19962;-71
2023/01/22 10:40:54;;;;;;;;;;;;;;;;;;10282991;28;19952;-70
2023/01/22 10:45:52;;;;;;;;;;;;;;;;;;10277022;28;19979;-70
2023/01/22 10:50:49;;;;;;;;;;;;;;;;;;10272462;28;20385;-71
2023/01/22 10:55:47;;;;;;;;;;;;;;;;;;10277236;28;19952;-70
2023/01/22 11:00:45;;;;;;;;;;;;;;;;;;10286337;28;19952;-70
2023/01/22 11:05:49;;;;;;;;;;;;;;;;;;10277424;28;19963;-71
2023/01/22 11:10:47;;;;;;;;;;;;;;;;;;10273411;28;19953;-71
2023/01/22 11:15:44;;;;;;;;;;;;;;;;;;10263805;28;19983;-71
2023/01/22 11:20:42;;;;;;;;;;;;;;;;;;10268648;28;19964;-72
2023/01/22 11:25:40;;;;;;;;;;;;;;;;;;10263796;28;19956;-71
2023/01/22 11:30:38;;;;;;;;;;;;;;;;;;10265114;28;19968;-72
2023/01/22 11:35:36;;;;;;;;;;;;;;;;;;10271508;28;19967;-71
2023/01/22 11:40:34;;;;;;;;;;;;;;;;;;10282528;28;19947;-70
2023/01/22 11:45:32;;;;;;;;;;;;;;;;;;10281552;28;19971;-70
2023/01/22 11:50:30;;;;;;;;;;;;;;;;;;10261561;28;19968;-70
2023/01/22 11:55:28;;;;;;;;;;;;;;;;;;10278047;28;19975;-72
2023/01/22 12:00:26;;;;;;;;;;;;;;;;;;10283893;28;20409;-70
2023/01/22 12:05:23;;;;;;;;;;;;;;;;;;10290757;28;19960;-70
2023/01/22 12:10:21;;;;;;;;;;;;;;;;;;10275303;28;20846;-69
2023/01/22 12:15:19;;;;;;;;;;;;;;;;;;10273637;28;20398;-69
2023/01/22 12:20:18;;;;;;;;;;;;;;;;;;10272101;28;20006;-70
2023/01/22 12:25:16;;;;;;;;;;;;;;;;;;10265627;28;20039;-70
2023/01/22 12:30:14;;;;;;;;;;;;;;;;;;10286093;28;19964;-70
2023/01/22 12:35:12;;;;;;;;;;;;;;;;;;10288300;28;20452;-70
2023/01/22 12:40:10;;;;;;;;;;;;;;;;;;10289127;28;19947;-71
2023/01/22 12:45:07;;;;;;;;;;;;;;;;;;10261979;28;20069;-70
2023/01/22 12:50:05;;;;;;;;;;;;;;;;;;10262533;28;19967;-70
2023/01/22 12:55:03;;;;;;;;;;;;;;;;;;10269067;28;19956;-70
2023/01/22 13:00:01;;;;;;;;;;;;;;;;;;10266464;28;19967;-69
2023/01/22 13:04:59;;;;;;;;;;;;;;;;;;10279125;28;19962;-69
2023/01/22 13:09:57;;;;;;;;;;;;;;;;;;10276350;28;19975;-70
2023/01/22 13:14:55;;;;;;;;;;;;;;;;;;10269251;28;19960;-70
2023/01/22 13:19:53;;;;;;;;;;;;;;;;;;10272020;28;19960;-70
2023/01/22 13:24:51;;;;;;;;;;;;;;;;;;10264146;28;19956;-70
2023/01/22 13:29:48;;;;;;;;;;;;;;;;;;10265260;28;19952;-70
2023/01/22 13:34:46;;;;;;;;;;;;;;;;;;10280455;28;20235;-69
2023/01/22 13:39:44;;;;;;;;;;;;;;;;;;10287900;28;19963;-69
2023/01/22 13:44:43;;;;;;;;;;;;;;;;;;10290260;28;19971;-71
2023/01/22 13:49:41;;;;;;;;;;;;;;;;;;10278592;28;19962;-72
2023/01/22 13:54:41;;;;;;;;;;;;;;;;;;10284495;28;19952;-71
2023/01/22 13:59:39;;;;;;;;;;;;;;;;;;10277900;28;19959;-71
2023/01/22 14:04:37;;;;;;;;;;;;;;;;;;10281522;28;19956;-72
2023/01/22 14:09:35;;;;;;;;;;;;;;;;;;10274122;28;19948;-72
2023/01/22 14:14:32;;;;;;;;;;;;;;;;;;10277699;28;19967;-71
2023/01/22 14:19:30;;;;;;;;;;;;;;;;;;10272779;28;19955;-71
2023/01/22 14:24:29;;;;;;;;;;;;;;;;;;10273687;28;19952;-72
2023/01/22 14:29:27;;;;;;;;;;;;;;;;;;10281208;28;19970;-72
2023/01/22 14:34:25;;;;;;;;;;;;;;;;;;10282620;28;19970;-72
2023/01/22 14:39:22;;;;;;;;;;;;;;;;;;10261641;28;19956;-73
2023/01/22 14:44:20;;;;;;;;;;;;;;;;;;10267800;28;19964;-71
2023/01/22 14:49:18;;;;;;;;;;;;;;;;;;10275430;28;19978;-70
2023/01/22 14:54:16;;;;;;;;;;;;;;;;;;10258009;28;19967;-71
2023/01/22 14:59:14;;;;;;;;;;;;;;;;;;10265843;28;19975;-70
2023/01/22 15:04:12;;;;;;;;;;;;;;;;;;10266183;28;19996;-70
2023/01/22 15:09:10;;;;;;;;;;;;;;;;;;10266016;28;20360;-71
2023/01/22 15:14:08;;;;;;;;;;;;;;;;;;10261483;28;20389;-71
2023/01/22 15:19:05;;;;;;;;;;;;;;;;;;10269372;28;20437;-70
2023/01/22 15:24:03;;;;;;;;;;;;;;;;;;10292042;28;19971;-71
2023/01/22 15:29:01;;;;;;;;;;;;;;;;;;10293188;28;19996;-70
2023/01/22 15:34:00;;;;;;;;;;;;;;;;;;10294343;28;19963;-70
2023/01/22 15:38:58;;;;;;;;;;;;;;;;;;10293465;28;19952;-70
2023/01/22 15:43:59;;;;;;;;;;;;;;;;;;10262666;28;19952;-71
2023/01/22 15:48:58;;;;;;;;;;;;;;;;;;10293836;28;19963;-71
2023/01/22 15:53:56;;;;;;;;;;;;;;;;;;10291874;28;19952;-71
2023/01/22 15:58:54;;;;;;;;;;;;;;;;;;10262518;28;20382;-71
2023/01/22 16:03:52;;;;;;;;;;;;;;;;;;10250185;28;19963;-70
2023/01/22 16:08:50;;;;;;;;;;;;;;;;;;10252241;28;20410;-69
2023/01/22 16:13:48;;;;;;;;;;;;;;;;;;10253168;28;19947;-70
2023/01/22 16:18:46;;;;;;;;;;;;;;;;;;10250788;28;19959;-69
2023/01/22 16:23:44;;;;;;;;;;;;;;;;;;10254596;28;19964;-70
2023/01/22 16:28:42;;;;;;;;;;;;;;;;;;10266336;28;19970;-69
2023/01/22 16:33:40;;;;;;;;;;;;;;;;;;10264605;28;19963;-70
2023/01/22 16:38:38;;;;;;;;;;;;;;;;;;10266583;28;19998;-71
2023/01/22 16:43:36;;;;;;;;;;;;;;;;;;10263598;28;20401;-70
2023/01/22 16:48:34;;;;;;;;;;;;;;;;;;10262108;28;19971;-69
2023/01/22 16:53:31;;;;;;;;;;;;;;;;;;10254786;28;19967;-70
2023/01/22 16:58:29;;;;;;;;;;;;;;;;;;10258936;28;19959;-69
2023/01/22 17:03:27;;;;;;;;;;;;;;;;;;10260857;28;19957;-69
2023/01/22 17:08:25;;;;;;;;;;;;;;;;;;10260846;28;20394;-70
2023/01/22 17:13:24;;;;;;;;;;;;;;;;;;10263484;28;20457;-69
2023/01/22 17:18:22;;;;;;;;;;;;;;;;;;10256454;28;19963;-70
2023/01/22 17:23:20;;;;;;;;;;;;;;;;;;10252576;28;19971;-70
2023/01/22 17:28:18;;;;;;;;;;;;;;;;;;10248865;28;19965;-71
2023/01/22 17:33:15;;;;;;;;;;;;;;;;;;10252842;28;19982;-70
2023/01/22 17:38:14;;;;;;;;;;;;;;;;;;10247142;28;19963;-70
2023/01/22 17:43:12;;;;;;;;;;;;;;;;;;10262049;28;19971;-70
2023/01/22 17:48:10;;;;;;;;;;;;;;;;;;10261728;28;19963;-69
2023/01/22 17:53:08;;;;;;;;;;;;;;;;;;10252701;28;19963;-69
2023/01/22 17:58:07;;;;;;;;;;;;;;;;;;10249131;28;19952;-70
2023/01/22 18:03:05;;;;;;;;;;;;;;;;;;10256178;28;19968;-70
2023/01/22 18:08:03;;;;;;;;;;;;;;;;;;10251072;28;19963;-71
2023/01/22 18:13:01;;;;;;;;;;;;;;;;;;10253093;28;20007;-71
2023/01/22 18:17:59;;;;;;;;;;;;;;;;;;10254247;28;20056;-69
2023/01/22 18:22:57;;;;;;;;;;;;;;;;;;10251377;28;20004;-69
2023/01/22 18:27:55;;;;;;;;;;;;;;;;;;10261742;28;19948;-69
2023/01/22 18:32:53;;;;;;;;;;;;;;;;;;10260073;28;19945;-69
2023/01/22 18:37:56;;;;;;;;;;;;;;;;;;10255739;28;19968;-70
2023/01/22 18:42:54;;;;;;;;;;;;;;;;;;10260631;28;19968;-71
2023/01/22 18:47:52;;;;;;;;;;;;;;;;;;10263180;28;19952;-70
2023/01/22 18:52:50;;;;;;;;;;;;;;;;;;10263590;28;19960;-69
2023/01/22 18:57:53;;;;;;;;;;;;;;;;;;10266856;28;19971;-70
2023/01/22 19:02:54;;;;;;;;;;;;;;;;;;10280162;28;19968;-71
2023/01/22 19:07:53;;;;;;;;;;;;;;;;;;10285382;28;19975;-71
2023/01/22 19:12:51;;;;;;;;;;;;;;;;;;10280791;28;20361;-71
2023/01/22 19:17:49;;;;;;;;;;;;;;;;;;10293683;28;20401;-70
2023/01/22 19:22:47;;;;;;;;;;;;;;;;;;10286405;28;19959;-71
2023/01/22 19:27:45;;;;;;;;;;;;;;;;;;10268337;28;19964;-71
2023/01/22 19:32:44;;;;;;;;;;;;;;;;;;10270091;28;19959;-71
2023/01/22 19:37:41;;;;;;;;;;;;;;;;;;10265300;28;19966;-71
2023/01/22 19:42:42;;;;;;;;;;;;;;;;;;10287695;28;19963;-71
2023/01/22 19:47:39;;;;;;;;;;;;;;;;;;10285286;28;19967;-71
2023/01/22 19:52:37;;;;;;;;;;;;;;;;;;10289231;28;19966;-71
2023/01/22 19:57:35;;;;;;;;;;;;;;;;;;10288234;28;19963;-70
2023/01/22 20:02:33;;;;;;;;;;;;;;;;;;10273065;28;19956;-71
2023/01/22 20:07:32;;;;;;;;;;;;;;;;;;10274047;28;19971;-71
2023/01/22 20:12:30;;;;;;;;;;;;;;;;;;10276850;28;19956;-71
2023/01/22 20:17:28;;;;;;;;;;;;;;;;;;10273449;28;19963;-72
2023/01/22 20:22:26;;;;;;;;;;;;;;;;;;10274564;28;19960;-71
2023/01/22 20:27:24;;;;;;;;;;;;;;;;;;10282186;28;20387;-70
2023/01/22 20:32:22;;;;;;;;;;;;;;;;;;10272839;28;20405;-71
2023/01/22 20:37:19;;;;;;;;;;;;;;;;;;10274001;28;19967;-72
2023/01/22 20:42:17;;;;;;;;;;;;;;;;;;10264909;28;19956;-69
2023/01/22 20:47:15;;;;;;;;;;;;;;;;;;10268753;28;20389;-71
2023/01/22 20:52:14;;;;;;;;;;;;;;;;;;10274451;28;19960;-71
2023/01/22 20:57:12;;;;;;;;;;;;;;;;;;10267588;28;20390;-71
2023/01/22 21:02:10;;;;;;;;;;;;;;;;;;10268951;28;20023;-70
2023/01/22 21:07:08;;;;;;;;;;;;;;;;;;10266968;28;19960;-70
2023/01/22 21:12:06;;;;;;;;;;;;;;;;;;10267874;28;19983;-70
2023/01/22 21:17:04;;;;;;;;;;;;;;;;;;10268691;28;19963;-71
2023/01/22 21:22:02;;;;;;;;;;;;;;;;;;10265709;28;19947;-71
2023/01/22 21:27:00;;;;;;;;;;;;;;;;;;10256367;28;19960;-70
2023/01/22 21:31:58;;;;;;;;;;;;;;;;;;10248651;28;19961;-71
2023/01/22 21:36:57;;;;;;;;;;;;;;;;;;10258493;28;19972;-70
2023/01/22 21:46:20;;;;;;;;;;;;;;;;;;10270502;28;19951;-70
2023/01/22 21:47:13;;;;;;;;;;;;;;;;;;10265368;28;19960;-72
2023/01/22 21:52:11;;;;;;;;;;;;;;;;;;10268399;28;19959;-71
2023/01/22 21:57:09;;;;;;;;;;;;;;;;;;10284640;28;19976;-70
2023/01/22 22:02:08;;;;;;;;;;;;;;;;;;10263529;28;19960;-70
2023/01/22 22:07:06;;;;;;;;;;;;;;;;;;10271551;28;19959;-70
2023/01/22 22:12:04;;;;;;;;;;;;;;;;;;10269856;28;20404;-70
2023/01/22 22:17:02;;;;;;;;;;;;;;;;;;10271397;28;19971;-71
2023/01/22 22:22:00;;;;;;;;;;;;;;;;;;10267371;28;19956;-70
2023/01/22 22:26:58;;;;;;;;;;;;;;;;;;10264236;28;19960;-70
2023/01/22 22:31:56;;;;;;;;;;;;;;;;;;10265523;28;20547;-71
2023/01/22 22:36:53;;;;;;;;;;;;;;;;;;10273740;28;20440;-70
2023/01/22 22:41:51;;;;;;;;;;;;;;;;;;10271646;28;19963;-71
2023/01/22 22:46:49;;;;;;;;;;;;;;;;;;10274516;28;19957;-71
2023/01/22 22:51:47;;;;;;;;;;;;;;;;;;10256562;28;20438;-70
2023/01/22 22:56:45;;;;;;;;;;;;;;;;;;10259613;28;19968;-70
2023/01/22 23:01:43;;;;;;;;;;;;;;;;;;10288090;28;19963;-70
2023/01/22 23:06:41;;;;;;;;;;;;;;;;;;10293663;28;19963;-71
2023/01/22 23:11:39;;;;;;;;;;;;;;;;;;10273871;28;19952;-71
2023/01/22 23:16:37;;;;;;;;;;;;;;;;;;10281082;28;19956;-71
2023/01/22 23:21:39;;;;;;;;;;;;;;;;;;10294063;28;19968;-70
2023/01/22 23:26:37;;;;;;;;;;;;;;;;;;10293748;28;19956;-70
2023/01/22 23:31:36;;;;;;;;;;;;;;;;;;10297020;28;19921;-71
2023/01/22 23:36:35;;;;;;;;;;;;;;;;;;10295777;28;19971;-71
2023/01/22 23:41:32;;;;;;;;;;;;;;;;;;10296141;28;19955;-70
2023/01/22 23:46:30;;;;;;;;;;;;;;;;;;10294871;28;20043;-71
2023/01/22 23:51:28;;;;;;;;;;;;;;;;;;10293796;28;19994;-71
2023/01/22 23:56:28;;;;;;;;;;;;;;;;;;10293131;28;19964;-70
